Time;durP1;ratioP1;P1;durP2;ratioP2;P2;SDS_P1;SDS_P2;PMS_P1;PMS_P2;Temp;Humidity;BMP_temperature;BMP_pressure;BME280_temperature;BME280_humidity;BME280_pressure;Samples;Min_cycle;Max_cycle;Signal;HPM_P1;HPM_P2
2021/01/15 00:01:09;;;;;;;52.83;23.90;;;-4.30;89.60;;;;;;5133331;28;20028;-83
2021/01/15 00:03:37;;;;;;;46.03;22.55;;;-4.30;89.40;;;;;;5133372;28;20023;-83
2021/01/15 00:06:07;;;;;;;44.55;23.15;;;-4.30;89.50;;;;;;5133218;28;20034;-82
2021/01/15 00:08:40;;;;;;;47.13;23.98;;;-4.30;89.40;;;;;;5132898;28;20058;-82
2021/01/15 00:11:21;;;;;;;48.08;23.05;;;-4.30;89.30;;;;;;5134943;27;20068;-83
2021/01/15 00:13:47;;;;;;;52.58;24.77;;;-4.30;89.30;;;;;;5133634;28;20380;-83
2021/01/15 00:16:18;;;;;;;54.28;26.40;;;-4.40;89.20;;;;;;5134398;27;20035;-82
2021/01/15 00:18:45;;;;;;;50.00;24.70;;;-4.50;89.60;;;;;;5132807;28;20164;-82
2021/01/15 00:21:33;;;;;;;43.80;21.23;;;-4.50;89.40;;;;;;5134747;27;20019;-82
2021/01/15 00:24:02;;;;;;;44.03;22.15;;;-4.50;89.40;;;;;;5133134;28;20051;-83
2021/01/15 00:26:29;;;;;;;51.10;25.00;;;-4.50;89.40;;;;;;5134369;27;20490;-83
2021/01/15 00:28:58;;;;;;;54.80;27.75;;;-4.50;89.40;;;;;;5134600;27;20065;-83
2021/01/15 00:31:40;;;;;;;59.83;30.25;;;-4.60;89.40;;;;;;5133230;28;20023;-83
2021/01/15 00:34:10;;;;;;;58.78;31.40;;;-4.60;89.30;;;;;;5132982;28;20027;-83
2021/01/15 00:36:38;;;;;;;69.50;33.75;;;-4.70;89.30;;;;;;5133271;28;20048;-82
2021/01/15 00:39:15;;;;;;;63.83;31.52;;;-4.70;89.30;;;;;;5132839;28;20029;-82
2021/01/15 00:41:45;;;;;;;55.70;28.40;;;-4.80;89.80;;;;;;5131265;28;20023;-83
2021/01/15 00:44:11;;;;;;;;;;;-4.90;90.00;;;;;;5116603;28;20034;-83
2021/01/15 00:46:45;;;;;;;61.78;28.55;;;-4.90;90.20;;;;;;5132856;28;20013;-83
2021/01/15 00:49:14;;;;;;;65.35;31.38;;;-5.00;90.30;;;;;;5134382;27;20027;-82
2021/01/15 00:51:49;;;;;;;68.32;30.00;;;-5.10;90.40;;;;;;5115001;28;20032;-82
2021/01/15 00:54:15;;;;;;;59.70;27.42;;;-5.10;90.40;;;;;;5150671;27;20031;-82
2021/01/15 00:56:41;;;;;;;73.68;32.85;;;-5.00;90.30;;;;;;5132882;28;20062;-82
2021/01/15 00:59:08;;;;;;;72.13;32.80;;;-5.10;90.30;;;;;;5133924;27;20063;-82
2021/01/15 01:01:37;;;;;;;71.25;32.15;;;-5.10;90.30;;;;;;5134014;28;20015;-83
2021/01/15 01:04:05;;;;;;;73.15;32.30;;;-5.10;90.30;;;;;;5133001;28;20072;-83
2021/01/15 01:06:31;;;;;;;60.78;29.33;;;-5.10;90.20;;;;;;5133967;27;20027;-82
2021/01/15 01:09:02;;;;;;;62.78;30.58;;;-5.00;90.20;;;;;;5137483;27;20062;-82
2021/01/15 01:11:30;;;;;;;54.58;26.20;;;-5.10;90.20;;;;;;5138009;27;20102;-83
2021/01/15 01:13:57;;;;;;;61.08;27.48;;;-5.00;90.10;;;;;;5136176;27;20503;-83
2021/01/15 01:16:25;;;;;;;61.47;29.38;;;-5.00;90.10;;;;;;5136172;27;20027;-82
2021/01/15 01:18:53;;;;;;;64.22;31.40;;;-5.00;90.30;;;;;;5136214;27;20050;-83
2021/01/15 01:21:19;;;;;;;85.70;38.50;;;-5.00;90.00;;;;;;5136532;27;20059;-82
2021/01/15 01:23:47;;;;;;;101.20;42.05;;;-5.10;90.00;;;;;;5137297;27;20088;-82
2021/01/15 01:26:14;;;;;;;102.40;40.13;;;-5.10;90.10;;;;;;5118806;27;20036;-83
2021/01/15 01:28:42;;;;;;;67.28;31.20;;;-5.10;90.30;;;;;;5135876;27;20027;-82
2021/01/15 01:31:27;;;;;;;67.38;32.70;;;-5.00;90.40;;;;;;5171013;27;20030;-82
2021/01/15 01:33:53;;;;;;;66.13;30.65;;;-5.00;90.50;;;;;;5137074;27;20027;-82
2021/01/15 01:36:20;;;;;;;59.45;27.38;;;-5.00;90.50;;;;;;5137097;27;20448;-83
2021/01/15 01:38:45;;;;;;;53.67;25.02;;;-5.00;90.40;;;;;;5170500;27;20023;-82
2021/01/15 01:41:12;;;;;;;51.33;23.58;;;-4.90;90.30;;;;;;5136880;27;20030;-83
2021/01/15 01:43:39;;;;;;;67.63;30.50;;;-4.80;90.20;;;;;;5135847;27;20076;-82
2021/01/15 01:46:07;;;;;;;61.78;30.73;;;-4.80;90.40;;;;;;5135506;27;20031;-83
2021/01/15 01:48:35;;;;;;;69.35;31.05;;;-4.80;90.40;;;;;;5136960;27;20106;-83
2021/01/15 01:51:03;;;;;;;77.05;32.50;;;-4.80;90.40;;;;;;5135667;27;20027;-83
2021/01/15 01:53:31;;;;;;;67.10;29.88;;;-4.70;90.50;;;;;;5118697;27;20396;-82
2021/01/15 01:55:58;;;;;;;69.80;31.08;;;-4.60;90.40;;;;;;5135682;27;20030;-83
2021/01/15 01:58:25;;;;;;;60.97;28.17;;;-4.60;90.40;;;;;;5135168;27;20023;-83
2021/01/15 02:00:58;;;;;;;61.00;27.63;;;-4.50;90.30;;;;;;5135611;27;20051;-83
2021/01/15 02:03:26;;;;;;;61.08;30.90;;;-4.40;90.20;;;;;;5119335;27;20414;-83
2021/01/15 02:05:52;;;;;;;61.92;29.80;;;-4.40;90.10;;;;;;5170214;27;20465;-82
2021/01/15 02:08:18;;;;;;;48.53;25.02;;;-4.30;90.20;;;;;;5135317;27;20058;-82
2021/01/15 02:11:04;;;;;;;59.33;29.42;;;-4.30;90.00;;;;;;5135152;27;20022;-82
2021/01/15 02:13:50;;;;;;;60.88;28.85;;;-4.30;89.90;;;;;;5136479;27;20024;-82
2021/01/15 02:16:23;;;;;;;56.97;26.23;;;-4.30;89.90;;;;;;5135177;27;20019;-82
2021/01/15 02:18:56;;;;;;;56.72;26.27;;;-4.20;89.90;;;;;;5134864;27;20396;-82
2021/01/15 02:21:58;;;;;;;56.20;27.02;;;-4.20;89.90;;;;;;5135114;27;20024;-82
2021/01/15 02:24:35;;;;;;;51.45;25.50;;;-4.10;90.00;;;;;;5136533;27;20042;-82
2021/01/15 02:27:03;;;;;;;46.88;22.63;;;-4.10;89.90;;;;;;5135021;27;20019;-82
2021/01/15 02:29:32;;;;;;;55.08;26.67;;;-4.00;89.70;;;;;;5135247;27;20027;-82
2021/01/15 02:32:17;;;;;;;53.47;26.52;;;-4.00;89.70;;;;;;5152457;27;20126;-82
2021/01/15 02:35:14;;;;;;;62.10;28.45;;;-4.00;90.00;;;;;;5134777;27;20023;-82
2021/01/15 02:37:49;;;;;;;54.67;26.40;;;-4.00;89.90;;;;;;5134787;27;20019;-82
2021/01/15 02:40:30;;;;;;;54.50;27.38;;;-4.00;89.90;;;;;;5135847;27;20023;-83
2021/01/15 02:43:02;;;;;;;53.38;25.23;;;-4.00;89.80;;;;;;5136178;27;20121;-82
2021/01/15 02:45:30;;;;;;;52.05;27.25;;;-4.00;89.50;;;;;;5135903;27;20027;-82
2021/01/15 02:48:02;;;;;;;60.13;29.13;;;-4.00;89.20;;;;;;5134716;27;20046;-82
2021/01/15 02:50:30;;;;;;;55.78;28.83;;;-3.90;89.60;;;;;;5134890;27;20455;-82
2021/01/15 02:52:59;;;;;;;56.17;28.27;;;-3.90;89.70;;;;;;5117431;27;20040;-83
2021/01/15 02:55:41;;;;;;;58.15;27.90;;;-3.90;90.00;;;;;;5135465;27;20050;-82
2021/01/15 02:58:07;;;;;;;53.83;26.00;;;-3.90;89.50;;;;;;5135517;27;20047;-82
2021/01/15 03:00:33;;;;;;;57.88;28.17;;;-3.80;89.50;;;;;;5134526;27;20023;-82
2021/01/15 03:03:23;;;;;;;56.25;26.98;;;-3.90;89.50;;;;;;5133859;27;20024;-83
2021/01/15 03:06:00;;;;;;;58.13;26.45;;;-3.80;89.50;;;;;;5133650;27;20038;-83
2021/01/15 03:08:26;;;;;;;51.33;26.73;;;-3.80;89.30;;;;;;5117786;27;20046;-83
2021/01/15 03:10:58;;;;;;;55.75;27.38;;;-3.80;89.00;;;;;;5133813;27;20023;-83
2021/01/15 03:13:28;;;;;;;54.53;26.33;;;-3.80;89.10;;;;;;5133741;27;20126;-82
2021/01/15 03:16:01;;;;;;;52.90;26.08;;;-3.80;89.00;;;;;;5134261;27;20027;-83
2021/01/15 03:18:29;;;;;;;54.50;26.58;;;-3.80;89.10;;;;;;5135290;27;20031;-83
2021/01/15 03:20:55;;;;;;;54.50;26.95;;;-3.80;88.90;;;;;;5116703;27;20020;-83
2021/01/15 03:23:21;;;;;;;55.03;27.85;;;-3.80;88.90;;;;;;5133029;27;20023;-82
2021/01/15 03:25:46;;;;;;;58.15;29.40;;;-3.80;89.00;;;;;;5133186;27;20420;-82
2021/01/15 03:28:12;;;;;;;60.28;29.92;;;-4.00;89.40;;;;;;5133441;27;20106;-83
2021/01/15 03:30:41;;;;;;;64.32;32.15;;;-3.90;89.60;;;;;;5133603;27;20027;-82
2021/01/15 03:33:06;;;;;;;66.82;33.45;;;-3.90;89.30;;;;;;5133922;27;20465;-82
2021/01/15 03:35:34;;;;;;;58.47;27.83;;;-4.00;89.20;;;;;;5133561;27;20019;-82
2021/01/15 03:38:05;;;;;;;63.88;32.30;;;-3.90;89.30;;;;;;5135154;27;20039;-82
2021/01/15 03:40:38;;;;;;;66.25;32.70;;;-3.90;89.20;;;;;;5152869;27;20025;-82
2021/01/15 03:43:11;;;;;;;61.17;30.55;;;-4.00;89.00;;;;;;5137592;27;20058;-82
2021/01/15 03:45:39;;;;;;;58.92;28.35;;;-3.90;89.40;;;;;;5155083;27;20447;-83
2021/01/15 03:48:07;;;;;;;57.15;29.05;;;-3.90;89.40;;;;;;5154642;27;20102;-82
2021/01/15 03:50:33;;;;;;;62.53;28.85;;;-3.80;89.20;;;;;;5120082;27;20535;-82
2021/01/15 03:52:59;;;;;;;59.42;29.73;;;-3.80;89.00;;;;;;5153467;27;20023;-82
2021/01/15 03:55:25;;;;;;;65.32;29.13;;;-3.80;88.80;;;;;;5155304;27;20038;-82
2021/01/15 03:57:52;;;;;;;59.15;29.23;;;-3.80;88.90;;;;;;5155163;27;20034;-82
2021/01/15 04:00:18;;;;;;;63.90;30.45;;;-3.80;88.90;;;;;;5153476;27;20154;-82
2021/01/15 04:02:46;;;;;;;68.22;33.05;;;-3.80;88.80;;;;;;5136520;27;20039;-82
2021/01/15 04:05:16;;;;;;;78.28;38.05;;;-3.80;88.70;;;;;;5153952;27;20061;-82
2021/01/15 04:07:42;;;;;;;67.28;34.00;;;-3.80;88.80;;;;;;5137424;27;20030;-83
2021/01/15 04:10:17;;;;;;;63.13;29.95;;;-3.80;88.90;;;;;;5153955;27;20087;-81
2021/01/15 04:12:45;;;;;;;68.00;34.17;;;-3.80;88.90;;;;;;5154316;27;20022;-82
2021/01/15 04:15:13;;;;;;;58.53;29.17;;;-3.70;88.70;;;;;;5153887;27;20373;-82
2021/01/15 04:17:41;;;;;;;64.57;31.00;;;-3.70;88.50;;;;;;5155026;27;20476;-82
2021/01/15 04:20:08;;;;;;;58.42;26.60;;;-3.80;88.70;;;;;;5153979;27;20027;-83
2021/01/15 04:22:42;;;;;;;61.38;29.77;;;-3.70;88.60;;;;;;5154035;27;20556;-83
2021/01/15 04:25:10;;;;;;;61.13;29.08;;;-3.80;88.50;;;;;;5153751;27;20018;-82
2021/01/15 04:27:39;;;;;;;59.08;27.52;;;-3.80;88.50;;;;;;5155116;27;20030;-83
2021/01/15 04:30:07;;;;;;;62.33;30.02;;;-3.80;88.60;;;;;;5152018;27;20019;-82
2021/01/15 04:32:33;;;;;;;59.00;28.65;;;-3.80;88.50;;;;;;5115329;28;20039;-83
2021/01/15 04:35:03;;;;;;;66.90;29.60;;;-3.80;88.60;;;;;;5133363;28;20082;-82
2021/01/15 04:37:29;;;;;;;59.00;29.10;;;-3.90;89.10;;;;;;5132913;28;20551;-82
2021/01/15 04:39:55;;;;;;;65.78;30.42;;;-3.80;89.00;;;;;;5132611;27;20119;-82
2021/01/15 04:42:25;;;;;;;65.68;31.23;;;-3.80;88.70;;;;;;5136203;27;20114;-83
2021/01/15 04:44:52;;;;;;;58.10;27.20;;;-3.80;88.80;;;;;;5119862;27;20499;-81
2021/01/15 04:47:18;;;;;;;65.15;31.38;;;-3.80;88.80;;;;;;5136819;27;20015;-82
2021/01/15 04:49:48;;;;;;;70.25;33.38;;;-3.70;88.70;;;;;;5119517;27;20069;-82
2021/01/15 04:52:16;;;;;;;77.20;36.25;;;-3.80;89.80;;;;;;5137074;27;20407;-82
2021/01/15 04:54:52;;;;;;;67.50;32.45;;;-3.70;89.00;;;;;;5136776;27;20038;-82
2021/01/15 04:57:20;;;;;;;64.85;29.83;;;-3.70;88.90;;;;;;5121099;27;20042;-82
2021/01/15 05:00:05;;;;;;;65.88;31.42;;;-3.70;89.00;;;;;;5119631;27;20387;-82
2021/01/15 05:02:34;;;;;;;65.22;30.48;;;-3.60;88.90;;;;;;5136651;27;20025;-82
2021/01/15 05:05:02;;;;;;;61.72;28.55;;;-3.70;89.00;;;;;;5119534;27;20043;-82
2021/01/15 05:07:33;;;;;;;52.30;26.40;;;-3.60;88.70;;;;;;5137727;27;20022;-81
2021/01/15 05:10:08;;;;;;;64.75;31.08;;;-3.50;88.60;;;;;;5135408;27;20147;-82
2021/01/15 05:12:42;;;;;;;65.32;31.00;;;-3.50;88.40;;;;;;5135270;27;20031;-82
2021/01/15 05:15:11;;;;;;;70.07;31.38;;;-3.50;88.40;;;;;;5135733;27;20496;-82
2021/01/15 05:17:41;;;;;;;55.38;28.75;;;-3.50;88.60;;;;;;5134450;27;20459;-82
2021/01/15 05:20:08;;;;;;;66.82;30.15;;;-3.50;88.40;;;;;;5118081;27;20075;-82
2021/01/15 05:22:34;;;;;;;60.95;29.95;;;-3.50;88.40;;;;;;5134882;27;20027;-82
2021/01/15 05:24:59;;;;;;;62.95;28.52;;;-3.40;88.50;;;;;;5136911;27;20112;-82
2021/01/15 05:27:38;;;;;;;83.10;36.88;;;-3.30;88.30;;;;;;5135613;27;20103;-82
2021/01/15 05:30:21;;;;;;;83.88;36.72;;;-3.40;88.70;;;;;;5137401;27;20043;-82
2021/01/15 05:32:50;;;;;;;65.95;30.45;;;-3.50;89.30;;;;;;5139517;27;20062;-82
2021/01/15 05:35:37;;;;;;;77.43;35.53;;;-3.50;89.20;;;;;;5137238;27;20031;-82
2021/01/15 05:38:04;;;;;;;70.88;32.30;;;-3.40;89.00;;;;;;5133110;27;20035;-82
2021/01/15 05:41:04;;;;;;;76.75;31.77;;;-3.40;89.10;;;;;;5149093;27;20122;-82
2021/01/15 05:43:32;;;;;;;77.07;32.55;;;-3.30;89.20;;;;;;5114042;28;20034;-82
2021/01/15 05:46:11;;;;;;;78.30;36.50;;;-3.30;89.20;;;;;;5116470;28;20028;-82
2021/01/15 05:48:43;;;;;;;87.82;37.53;;;-3.30;90.00;;;;;;5149630;27;20370;-82
2021/01/15 05:51:32;;;;;;;76.32;35.33;;;-3.30;89.40;;;;;;5115463;28;20027;-83
2021/01/15 05:53:59;;;;;;;89.25;43.35;;;-3.20;89.30;;;;;;5099507;28;20035;-82
2021/01/15 05:56:26;;;;;;;73.75;35.42;;;-3.20;88.70;;;;;;5114701;28;20080;-82
2021/01/15 05:59:22;;;;;;;81.20;39.00;;;-3.20;88.40;;;;;;5114458;28;20028;-82
2021/01/15 06:01:55;;;;;;;70.18;30.27;;;-3.40;87.90;;;;;;5114543;28;20085;-82
2021/01/15 06:04:37;;;;;;;65.10;30.60;;;-3.50;86.80;;;;;;5114912;28;20019;-82
2021/01/15 06:07:12;;;;;;;64.10;27.92;;;-3.80;86.00;;;;;;5128751;27;20032;-83
2021/01/15 06:09:40;;;;;;;55.67;22.38;;;-3.80;87.20;;;;;;5136351;27;20141;-84
2021/01/15 06:12:15;;;;;;;53.90;23.45;;;-3.90;87.20;;;;;;5136898;27;20485;-82
2021/01/15 06:14:57;;;;;;;55.40;23.25;;;-3.90;87.20;;;;;;5135076;27;20027;-83
2021/01/15 06:17:25;;;;;;;50.95;21.88;;;-4.10;87.40;;;;;;5135142;27;20083;-82
2021/01/15 06:20:03;;;;;;;55.25;22.98;;;-4.10;87.90;;;;;;5134772;27;20079;-82
2021/01/15 06:22:33;;;;;;;53.97;23.65;;;-4.30;88.20;;;;;;5132181;27;20023;-82
2021/01/15 06:25:09;;;;;;;45.42;20.23;;;-4.30;88.80;;;;;;5136420;27;20079;-82
2021/01/15 06:27:41;;;;;;;49.78;21.10;;;-4.20;88.20;;;;;;5135018;27;20031;-82
2021/01/15 06:30:31;;;;;;;50.85;21.60;;;-4.30;88.40;;;;;;5118115;27;20027;-82
2021/01/15 06:33:13;;;;;;;52.33;20.98;;;-4.30;88.10;;;;;;5134966;27;20019;-82
2021/01/15 06:35:41;;;;;;;51.60;21.55;;;-4.30;88.60;;;;;;5132912;27;20023;-82
2021/01/15 06:38:08;;;;;;;49.88;22.17;;;-4.30;88.50;;;;;;5117992;27;20387;-82
2021/01/15 06:40:39;;;;;;;50.38;21.48;;;-4.30;88.80;;;;;;5135827;27;20035;-82
2021/01/15 06:43:34;;;;;;;47.55;21.33;;;-4.40;88.10;;;;;;5134807;27;20467;-82
2021/01/15 06:46:01;;;;;;;48.72;23.75;;;-4.50;87.30;;;;;;5136014;27;20548;-83
2021/01/15 06:48:28;;;;;;;51.33;23.70;;;-4.50;88.00;;;;;;5134647;27;20035;-83
2021/01/15 06:50:56;;;;;;;48.35;23.50;;;-4.60;87.40;;;;;;5134734;27;20051;-83
2021/01/15 06:53:41;;;;;;;51.70;24.90;;;-4.70;88.20;;;;;;5134545;27;20476;-83
2021/01/15 06:56:12;;;;;;;56.95;23.08;;;-4.60;88.40;;;;;;5134652;27;20035;-83
2021/01/15 06:58:58;;;;;;;64.70;24.13;;;-4.70;88.40;;;;;;5135356;27;20035;-84
2021/01/15 07:01:50;;;;;;;51.10;21.90;;;-4.70;89.30;;;;;;5136045;27;20503;-84
2021/01/15 07:04:32;;;;;;;50.75;21.98;;;-4.70;88.90;;;;;;5133922;27;20031;-83
2021/01/15 07:07:15;;;;;;;63.85;26.27;;;-4.70;88.90;;;;;;5134632;27;20043;-83
2021/01/15 07:09:44;;;;;;;86.15;32.88;;;-4.70;88.60;;;;;;5133059;27;20047;-84
2021/01/15 07:12:14;;;;;;;49.55;21.23;;;-4.70;88.30;;;;;;5134500;27;20484;-84
2021/01/15 07:14:56;;;;;;;51.42;22.67;;;-4.90;87.90;;;;;;5134569;27;20428;-84
2021/01/15 07:17:36;;;;;;;50.20;22.90;;;-4.80;87.80;;;;;;5132044;27;20031;-84
2021/01/15 07:20:06;;;;;;;57.83;25.17;;;-5.00;86.90;;;;;;5133865;27;20027;-84
2021/01/15 07:22:56;;;;;;;55.28;24.42;;;-4.90;87.80;;;;;;5134083;27;20050;-84
2021/01/15 07:25:22;;;;;;;60.92;28.42;;;-4.90;88.00;;;;;;5119939;27;20035;-84
2021/01/15 07:27:49;;;;;;;74.50;38.33;;;-4.90;87.40;;;;;;5117017;27;20076;-84
2021/01/15 07:30:25;;;;;;;73.63;35.60;;;-4.90;87.10;;;;;;5135451;27;20027;-84
2021/01/15 07:32:55;;;;;;;58.55;30.10;;;-4.80;87.40;;;;;;5133875;27;20034;-84
2021/01/15 07:35:25;;;;;;;49.25;24.00;;;-4.80;87.10;;;;;;5127651;27;20023;-83
2021/01/15 07:38:07;;;;;;;75.25;35.05;;;-5.00;85.30;;;;;;5135078;27;20499;-83
2021/01/15 07:40:37;;;;;;;58.08;27.95;;;-4.90;86.70;;;;;;5117121;27;20415;-85
2021/01/15 07:43:03;;;;;;;51.42;23.80;;;-4.90;86.10;;;;;;5133364;27;20015;-84
2021/01/15 07:45:32;;;;;;;49.60;23.55;;;-4.90;86.40;;;;;;5133950;27;20027;-84
2021/01/15 07:48:01;;;;;;;49.97;24.63;;;-4.90;85.80;;;;;;5133760;27;20039;-84
2021/01/15 07:50:31;;;;;;;54.42;25.88;;;-4.90;86.40;;;;;;5134985;27;20106;-84
2021/01/15 07:53:17;;;;;;;71.00;35.70;;;-4.90;86.10;;;;;;5134901;27;20115;-83
2021/01/15 07:55:58;;;;;;;103.00;49.10;;;-4.80;86.50;;;;;;5132097;27;20480;-83
2021/01/15 07:58:45;;;;;;;88.50;43.88;;;-4.90;85.90;;;;;;5133316;27;20053;-83
2021/01/15 08:01:16;;;;;;;57.40;29.13;;;-4.90;85.90;;;;;;5132346;27;20027;-83
2021/01/15 08:04:03;;;;;;;75.53;34.33;;;-4.80;87.20;;;;;;5134361;27;20056;-83
2021/01/15 08:06:29;;;;;;;53.70;26.15;;;-4.80;86.20;;;;;;5134203;27;20027;-84
2021/01/15 08:09:14;;;;;;;75.20;33.72;;;-4.80;85.90;;;;;;5133521;27;20059;-84
2021/01/15 08:11:57;;;;;;;70.57;29.38;;;-4.80;86.70;;;;;;5098630;28;20038;-83
2021/01/15 08:14:25;;;;;;;76.13;34.47;;;-4.70;87.40;;;;;;5133146;28;20037;-84
2021/01/15 08:16:51;;;;;;;64.40;29.05;;;-4.70;86.10;;;;;;5120563;27;20035;-84
2021/01/15 08:19:20;;;;;;;61.28;26.02;;;-4.60;86.50;;;;;;5136633;27;20084;-83
2021/01/15 08:21:49;;;;;;;66.25;28.35;;;-4.60;86.30;;;;;;5120068;27;20039;-83
2021/01/15 08:24:17;;;;;;;59.03;27.98;;;-4.50;87.10;;;;;;5136615;27;20031;-83
2021/01/15 08:26:50;;;;;;;47.25;21.02;;;-4.50;85.60;;;;;;5137003;27;20023;-84
2021/01/15 08:29:18;;;;;;;71.97;31.63;;;-4.50;86.50;;;;;;5138590;27;20043;-83
2021/01/15 08:31:45;;;;;;;59.60;28.85;;;-4.50;85.40;;;;;;5136872;27;20027;-82
2021/01/15 08:34:21;;;;;;;52.72;27.25;;;-4.60;84.50;;;;;;5136886;27;20160;-82
2021/01/15 08:36:56;;;;;;;43.97;20.60;;;-4.80;83.90;;;;;;5133572;27;20035;-83
2021/01/15 08:39:21;;;;;;;46.10;23.17;;;-4.70;84.80;;;;;;5136706;27;20035;-83
2021/01/15 08:41:56;;;;;;;54.38;26.77;;;-4.70;85.20;;;;;;5136582;27;20024;-83
2021/01/15 08:44:34;;;;;;;50.05;23.70;;;-4.80;85.10;;;;;;5136666;27;20023;-82
2021/01/15 08:47:03;;;;;;;42.78;21.33;;;-4.80;85.90;;;;;;5136576;27;20023;-83
2021/01/15 08:49:30;;;;;;;50.80;26.85;;;-4.70;86.20;;;;;;5137642;27;20047;-83
2021/01/15 08:51:58;;;;;;;47.92;23.23;;;-4.70;84.40;;;;;;5135848;27;20038;-83
2021/01/15 08:54:25;;;;;;;51.97;24.42;;;-4.60;86.10;;;;;;5136452;27;20034;-82
2021/01/15 08:56:52;;;;;;;42.65;22.27;;;-4.70;84.20;;;;;;5135982;27;20041;-82
2021/01/15 08:59:28;;;;;;;49.15;24.10;;;-4.90;82.20;;;;;;5136310;27;20031;-82
2021/01/15 09:02:06;;;;;;;57.25;25.58;;;-4.80;85.10;;;;;;5136167;27;20091;-82
2021/01/15 09:04:34;;;;;;;54.78;25.85;;;-4.80;84.00;;;;;;5136375;27;20120;-82
2021/01/15 09:07:04;;;;;;;46.85;24.10;;;-4.90;82.80;;;;;;5135965;27;20096;-82
2021/01/15 09:09:33;;;;;;;56.05;29.45;;;-4.90;83.60;;;;;;5135822;27;20083;-83
2021/01/15 09:12:10;;;;;;;60.35;30.45;;;-5.10;83.60;;;;;;5137642;27;20031;-82
2021/01/15 09:14:36;;;;;;;57.58;30.02;;;-5.00;84.10;;;;;;5135545;27;20031;-82
2021/01/15 09:17:04;;;;;;;55.38;23.25;;;-4.90;84.50;;;;;;5137697;27;20075;-81
2021/01/15 09:19:30;;;;;;;55.97;24.45;;;-4.90;84.70;;;;;;5137820;27;20024;-82
2021/01/15 09:22:18;;;;;;;59.92;28.65;;;-4.80;84.80;;;;;;5118932;27;20023;-82
2021/01/15 09:24:43;;;;;;;44.42;22.98;;;-4.80;83.80;;;;;;5137350;27;20027;-81
2021/01/15 09:27:10;;;;;;;56.22;25.88;;;-4.80;82.50;;;;;;5135167;27;20073;-81
2021/01/15 09:29:38;;;;;;;50.45;23.20;;;-5.00;82.30;;;;;;5136417;27;20023;-81
2021/01/15 09:32:05;;;;;;;47.78;23.10;;;-5.00;83.70;;;;;;5136063;27;20019;-82
2021/01/15 09:34:32;;;;;;;53.88;28.42;;;-4.90;84.40;;;;;;5135612;27;20472;-81
2021/01/15 09:36:59;;;;;;;48.22;24.65;;;-5.00;84.00;;;;;;5135689;27;20031;-81
2021/01/15 09:39:27;;;;;;;55.00;26.58;;;-5.00;83.80;;;;;;5135741;27;20361;-82
2021/01/15 09:41:58;;;;;;;52.17;24.35;;;-4.90;84.90;;;;;;5118982;27;20084;-82
2021/01/15 09:44:27;;;;;;;48.47;24.98;;;-4.90;85.10;;;;;;5137359;27;20030;-82
2021/01/15 09:47:02;;;;;;;42.63;22.48;;;-4.80;84.50;;;;;;5136088;27;20410;-82
2021/01/15 09:49:28;;;;;;;52.00;26.55;;;-4.80;85.20;;;;;;5135564;27;20023;-82
2021/01/15 09:51:55;;;;;;;56.95;32.13;;;-4.70;85.20;;;;;;5136626;27;20061;-82
2021/01/15 09:54:25;;;;;;;47.40;28.77;;;-4.50;85.80;;;;;;5135289;27;20019;-82
2021/01/15 09:56:51;;;;;;;42.38;21.55;;;-4.50;81.90;;;;;;5136387;27;20023;-82
2021/01/15 09:59:17;;;;;;;32.55;17.05;;;-4.40;83.70;;;;;;5136803;27;20023;-83
2021/01/15 10:01:46;;;;;;;44.65;20.83;;;-4.30;82.30;;;;;;5136831;27;20019;-83
2021/01/15 10:04:11;;;;;;;38.80;18.70;;;-4.40;80.50;;;;;;5135603;27;20493;-82
2021/01/15 10:06:38;;;;;;;36.42;18.38;;;-4.40;79.20;;;;;;5136446;27;20023;-83
2021/01/15 10:09:05;;;;;;;27.98;14.32;;;-4.50;79.90;;;;;;5135129;27;20051;-83
2021/01/15 10:11:36;;;;;;;36.50;15.60;;;-4.40;81.30;;;;;;5135404;27;20020;-82
2021/01/15 10:14:07;;;;;;;35.72;17.77;;;-4.40;80.30;;;;;;5135340;27;20023;-82
2021/01/15 10:16:37;;;;;;;30.95;15.35;;;-4.40;78.70;;;;;;5135400;27;20061;-81
2021/01/15 10:19:03;;;;;;;23.33;11.90;;;-4.30;80.30;;;;;;5133775;27;20039;-81
2021/01/15 10:21:35;;;;;;;27.75;13.63;;;-4.30;79.90;;;;;;5135396;27;20027;-81
2021/01/15 10:24:03;;;;;;;31.27;15.57;;;-4.30;80.50;;;;;;5135464;27;20106;-81
2021/01/15 10:26:34;;;;;;;31.15;15.63;;;-4.20;80.10;;;;;;5134707;27;20023;-82
2021/01/15 10:29:03;;;;;;;24.35;13.05;;;-4.50;77.90;;;;;;5118148;27;20023;-82
2021/01/15 10:31:31;;;;;;;34.60;17.52;;;-4.50;79.60;;;;;;5136156;27;20027;-82
2021/01/15 10:33:58;;;;;;;26.80;14.93;;;-4.50;79.00;;;;;;5135255;27;20030;-81
2021/01/15 10:36:25;;;;;;;26.77;15.98;;;-4.70;78.90;;;;;;5135887;27;20556;-81
2021/01/15 10:38:51;;;;;;;27.75;13.43;;;-4.80;80.80;;;;;;5133327;27;20038;-82
2021/01/15 10:41:27;;;;;;;28.40;16.13;;;-4.60;81.90;;;;;;5134833;27;20488;-82
2021/01/15 10:43:53;;;;;;;47.97;26.60;;;-4.60;80.90;;;;;;5117845;27;20114;-84
2021/01/15 10:46:30;;;;;;;58.78;30.35;;;-4.50;80.40;;;;;;5117778;27;20054;-82
2021/01/15 10:48:59;;;;;;;41.30;22.73;;;-4.50;80.60;;;;;;5134795;27;20362;-82
2021/01/15 10:51:25;;;;;;;60.80;33.53;;;-4.50;80.10;;;;;;5135664;27;20023;-81
2021/01/15 10:53:51;;;;;;;36.03;18.88;;;-4.50;78.90;;;;;;5135613;27;20080;-81
2021/01/15 10:56:18;;;;;;;32.45;16.73;;;-4.40;81.00;;;;;;5117223;27;20034;-81
2021/01/15 10:58:44;;;;;;;28.17;15.65;;;-4.30;81.30;;;;;;5133935;27;20023;-81
2021/01/15 11:01:10;;;;;;;28.20;15.48;;;-4.30;80.60;;;;;;5134295;27;20049;-81
2021/01/15 11:03:36;;;;;;;24.83;14.48;;;-4.40;79.80;;;;;;5135284;27;20057;-81
2021/01/15 11:06:02;;;;;;;32.72;16.67;;;-4.40;80.00;;;;;;5134100;27;20047;-81
2021/01/15 11:08:28;;;;;;;28.58;13.80;;;-4.50;79.70;;;;;;5133603;27;20488;-82
2021/01/15 11:10:54;;;;;;;27.77;14.15;;;-4.50;79.80;;;;;;5134538;27;20102;-81
2021/01/15 11:13:20;;;;;;;28.13;14.52;;;-4.60;79.90;;;;;;5135366;27;20090;-81
2021/01/15 11:15:46;;;;;;;29.55;15.98;;;-4.60;79.50;;;;;;5134079;27;20107;-81
2021/01/15 11:18:12;;;;;;;42.10;20.17;;;-4.70;78.80;;;;;;5133655;27;20023;-81
2021/01/15 11:20:37;;;;;;;42.70;19.88;;;-4.70;78.90;;;;;;5135161;27;20381;-81
2021/01/15 11:23:04;;;;;;;38.00;17.55;;;-4.70;78.70;;;;;;5133546;27;20064;-81
2021/01/15 11:25:30;;;;;;;33.58;16.73;;;-4.70;79.10;;;;;;5133777;27;20019;-81
2021/01/15 11:27:56;;;;;;;41.33;20.90;;;-4.90;77.80;;;;;;5133759;27;20015;-80
2021/01/15 11:30:22;;;;;;;36.47;15.45;;;-4.90;78.90;;;;;;5134026;27;20064;-81
2021/01/15 11:32:48;;;;;;;28.65;13.55;;;-5.00;78.40;;;;;;5132773;27;20023;-81
2021/01/15 11:35:14;;;;;;;29.83;16.08;;;-5.10;78.40;;;;;;5133299;27;20535;-81
2021/01/15 11:37:40;;;;;;;33.60;16.13;;;-5.10;78.70;;;;;;5133693;27;20058;-81
2021/01/15 11:40:07;;;;;;;34.08;16.73;;;-5.10;78.60;;;;;;5133665;27;20119;-80
2021/01/15 11:42:36;;;;;;;23.17;11.50;;;-5.20;78.20;;;;;;5135198;27;20020;-81
2021/01/15 11:45:04;;;;;;;20.58;10.25;;;-5.20;78.60;;;;;;5133523;27;20030;-81
2021/01/15 11:47:30;;;;;;;22.85;11.00;;;-5.20;77.50;;;;;;5134100;27;20132;-81
2021/01/15 11:49:56;;;;;;;20.52;11.02;;;-5.20;76.90;;;;;;5116207;27;20524;-81
2021/01/15 11:52:22;;;;;;;22.13;9.98;;;-5.20;75.60;;;;;;5134783;27;20027;-81
2021/01/15 11:54:49;;;;;;;21.52;10.73;;;-5.30;74.80;;;;;;5133322;27;20115;-81
2021/01/15 11:57:16;;;;;;;22.63;11.43;;;-5.30;74.50;;;;;;5134678;27;20164;-81
2021/01/15 11:59:43;;;;;;;23.98;12.23;;;-5.40;74.70;;;;;;5132886;27;20177;-81
2021/01/15 12:02:08;;;;;;;22.25;10.85;;;-5.40;74.70;;;;;;5132801;27;20076;-81
2021/01/15 12:04:34;;;;;;;20.90;11.65;;;-5.40;73.70;;;;;;5115165;28;20027;-82
2021/01/15 12:07:00;;;;;;;20.58;9.80;;;-5.50;72.70;;;;;;5132335;28;20502;-81
2021/01/15 12:09:26;;;;;;;23.63;12.30;;;-5.50;73.10;;;;;;5115658;28;20051;-81
2021/01/15 12:11:52;;;;;;;25.27;13.10;;;-5.60;72.90;;;;;;5133085;28;20061;-80
2021/01/15 12:14:20;;;;;;;24.88;11.40;;;-5.90;71.20;;;;;;5132400;28;20035;-80
2021/01/15 12:16:46;;;;;;;21.63;10.30;;;-5.90;72.70;;;;;;5132365;28;20027;-80
2021/01/15 12:19:11;;;;;;;24.10;11.38;;;-5.90;72.50;;;;;;5116003;28;20114;-79
2021/01/15 12:21:37;;;;;;;26.35;11.75;;;-6.10;71.90;;;;;;5132665;28;20072;-81
2021/01/15 12:24:07;;;;;;;38.00;16.70;;;-6.10;73.30;;;;;;5132692;28;20080;-81
2021/01/15 12:26:39;;;;;;;20.27;10.93;;;-6.20;72.80;;;;;;5132850;28;20026;-81
2021/01/15 12:29:04;;;;;;;23.13;11.73;;;-6.10;72.70;;;;;;5132665;28;20484;-81
2021/01/15 12:31:31;;;;;;;20.95;10.52;;;-6.10;73.30;;;;;;5132007;28;20027;-82
2021/01/15 12:34:06;;;;;;;22.38;11.18;;;-6.10;73.00;;;;;;5132168;28;20446;-81
2021/01/15 12:36:32;;;;;;;23.02;11.40;;;-6.10;71.70;;;;;;5133461;28;20039;-80
2021/01/15 12:38:59;;;;;;;24.70;11.43;;;-6.20;71.50;;;;;;5132592;28;20027;-81
2021/01/15 12:41:24;;;;;;;22.48;11.27;;;-6.20;71.40;;;;;;5132193;28;20054;-81
2021/01/15 12:43:51;;;;;;;23.20;11.40;;;-6.20;70.60;;;;;;5132413;28;20051;-81
2021/01/15 12:46:18;;;;;;;22.23;11.25;;;-6.30;70.80;;;;;;5133587;27;20019;-81